Time;durP1;ratioP1;P1;durP2;ratioP2;P2;SDS_P1;SDS_P2;PMS_P1;PMS_P2;Temp;Humidity;BMP_temperature;BMP_pressure;BME280_temperature;BME280_humidity;BME280_pressure;Samples;Min_cycle;Max_cycle;Signal;HPM_P1;HPM_P2
2024/03/29 00:01:59;;;;;;;;;0.00;0.00;;;;;;;;5100249;27;45481;-58
2024/03/29 00:04:24;;;;;;;;;2.00;0.00;;;;;;;;5099519;27;45457;-58
2024/03/29 00:06:50;;;;;;;;;2.00;0.00;;;;;;;;5100082;27;45442;-58
2024/03/29 00:09:15;;;;;;;;;1.00;1.00;;;;;;;;5099111;27;45381;-58
2024/03/29 00:11:40;;;;;;;;;0.00;0.00;;;;;;;;5098446;27;45724;-58
2024/03/29 00:14:05;;;;;;;;;0.67;0.67;;;;;;;;5094546;27;45694;-59
2024/03/29 00:16:30;;;;;;;;;0.33;0.00;;;;;;;;5095278;27;45370;-58
2024/03/29 00:18:55;;;;;;;;;0.00;0.00;;;;;;;;5072898;27;46632;-58
2024/03/29 00:21:21;;;;;;;;;0.00;0.00;;;;;;;;5081180;27;45349;-58
2024/03/29 00:23:46;;;;;;;;;0.00;0.00;;;;;;;;5097114;27;45521;-58
2024/03/29 00:26:12;;;;;;;;;2.00;0.00;;;;;;;;5099350;27;45430;-58
2024/03/29 00:28:37;;;;;;;;;0.00;0.00;;;;;;;;5092069;27;46361;-58
2024/03/29 00:31:03;;;;;;;;;1.67;0.00;;;;;;;;5099187;27;45437;-59
2024/03/29 00:33:28;;;;;;;;;0.00;0.00;;;;;;;;5099364;27;45323;-58
2024/03/29 00:35:53;;;;;;;;;0.00;0.00;;;;;;;;5098983;27;45379;-58
2024/03/29 00:38:18;;;;;;;;;0.00;0.00;;;;;;;;5098485;27;45653;-58
2024/03/29 00:40:43;;;;;;;;;0.00;0.00;;;;;;;;5099734;27;45342;-58
2024/03/29 00:43:08;;;;;;;;;0.00;0.00;;;;;;;;5089478;27;45595;-58
2024/03/29 00:45:34;;;;;;;;;0.33;0.00;;;;;;;;5091036;27;45238;-58
2024/03/29 00:47:59;;;;;;;;;0.00;0.00;;;;;;;;5080776;27;47085;-59
2024/03/29 00:50:24;;;;;;;;;0.00;0.00;;;;;;;;5098721;27;45663;-58
2024/03/29 00:52:49;;;;;;;;;1.00;0.00;;;;;;;;5095984;27;45289;-58
2024/03/29 00:55:15;;;;;;;;;0.00;0.00;;;;;;;;5099358;27;45550;-59
2024/03/29 00:57:40;;;;;;;;;0.00;0.00;;;;;;;;5098368;27;46489;-59
2024/03/29 01:00:06;;;;;;;;;0.00;0.00;;;;;;;;5099045;27;45299;-58
2024/03/29 01:02:31;;;;;;;;;1.00;1.00;;;;;;;;5093378;27;45472;-59
2024/03/29 01:04:56;;;;;;;;;1.00;1.00;;;;;;;;5098221;27;45469;-58
2024/03/29 01:07:21;;;;;;;;;0.33;0.33;;;;;;;;5097823;27;47088;-58
2024/03/29 01:09:47;;;;;;;;;0.00;0.00;;;;;;;;5098596;27;45478;-58
2024/03/29 01:12:12;;;;;;;;;0.00;0.00;;;;;;;;5096809;27;45516;-59
2024/03/29 01:14:37;;;;;;;;;1.00;1.00;;;;;;;;5092192;27;45307;-58
2024/03/29 01:17:02;;;;;;;;;0.67;0.67;;;;;;;;5098014;27;45533;-59
2024/03/29 01:19:28;;;;;;;;;1.00;1.00;;;;;;;;5094834;27;45361;-58
2024/03/29 01:21:53;;;;;;;;;1.33;1.00;;;;;;;;5091998;27;45303;-59
2024/03/29 01:24:18;;;;;;;;;0.33;0.00;;;;;;;;5100159;27;45351;-61
2024/03/29 01:26:44;;;;;;;;;0.00;0.00;;;;;;;;5102385;27;45969;-59
2024/03/29 01:29:09;;;;;;;;;1.00;1.00;;;;;;;;5099495;27;45466;-58
2024/03/29 01:31:35;;;;;;;;;0.00;0.00;;;;;;;;5095283;27;45456;-58
2024/03/29 01:34:02;;;;;;;;;0.00;0.00;;;;;;;;5096254;27;45314;-58
2024/03/29 01:36:27;;;;;;;;;1.33;0.00;;;;;;;;5100070;27;46701;-59
2024/03/29 01:38:56;;;;;;;;;0.33;0.33;;;;;;;;5097718;27;45378;-58
2024/03/29 01:41:23;;;;;;;;;1.33;1.00;;;;;;;;5095913;27;45351;-59
2024/03/29 01:43:48;;;;;;;;;0.00;0.00;;;;;;;;5096319;27;45612;-58
2024/03/29 01:46:13;;;;;;;;;0.00;0.00;;;;;;;;5092308;27;45633;-58
2024/03/29 01:48:39;;;;;;;;;1.00;1.00;;;;;;;;5098137;27;45443;-58
2024/03/29 01:51:04;;;;;;;;;0.00;0.00;;;;;;;;5099006;27;45404;-58
2024/03/29 01:53:29;;;;;;;;;0.00;0.00;;;;;;;;5101558;27;45525;-58
2024/03/29 01:55:55;;;;;;;;;2.00;0.00;;;;;;;;5101484;27;45591;-59
2024/03/29 01:58:20;;;;;;;;;0.00;0.00;;;;;;;;5082241;27;45459;-59
2024/03/29 02:00:50;;;;;;;;;1.00;1.00;;;;;;;;5100491;27;45453;-58
2024/03/29 02:03:16;;;;;;;;;0.33;0.00;;;;;;;;5092977;27;45302;-59
2024/03/29 02:05:41;;;;;;;;;0.67;0.67;;;;;;;;5101710;27;45267;-58
2024/03/29 02:08:07;;;;;;;;;2.00;0.00;;;;;;;;5100949;27;45413;-58
2024/03/29 02:10:33;;;;;;;;;2.00;1.00;;;;;;;;5099926;27;45417;-59
2024/03/29 02:12:58;;;;;;;;;1.67;0.00;;;;;;;;5101743;27;45305;-58
2024/03/29 02:15:24;;;;;;;;;2.00;0.00;;;;;;;;5100697;27;45687;-58
2024/03/29 02:17:51;;;;;;;;;3.00;1.00;;;;;;;;5101695;27;45305;-58
2024/03/29 02:20:16;;;;;;;;;0.67;0.67;;;;;;;;5096637;27;45423;-58
2024/03/29 02:22:46;;;;;;;;;1.00;1.00;;;;;;;;5101742;27;45389;-58
2024/03/29 02:25:12;;;;;;;;;1.00;0.67;;;;;;;;5100837;27;46221;-58
2024/03/29 02:27:38;;;;;;;;;0.00;0.00;;;;;;;;5093818;27;45618;-58
2024/03/29 02:30:03;;;;;;;;;2.00;0.33;;;;;;;;5079750;27;45363;-58
2024/03/29 02:32:28;;;;;;;;;0.67;0.67;;;;;;;;5093831;27;45314;-58
2024/03/29 02:34:53;;;;;;;;;0.67;0.67;;;;;;;;5097311;27;46379;-58
2024/03/29 02:37:18;;;;;;;;;1.67;1.00;;;;;;;;5092535;27;45290;-58
2024/03/29 02:39:44;;;;;;;;;1.00;1.00;;;;;;;;5100005;27;45355;-58
2024/03/29 02:42:09;;;;;;;;;0.67;0.67;;;;;;;;5101174;27;45231;-58
2024/03/29 02:44:34;;;;;;;;;1.00;1.00;;;;;;;;5092062;27;45388;-58
2024/03/29 02:46:59;;;;;;;;;3.00;1.33;;;;;;;;5093813;27;45268;-58
2024/03/29 02:49:24;;;;;;;;;4.00;2.00;;;;;;;;5098455;27;45620;-58
2024/03/29 02:51:52;;;;;;;;;0.33;0.33;;;;;;;;5100101;27;45495;-59
2024/03/29 02:54:17;;;;;;;;;0.67;0.67;;;;;;;;5096724;27;45678;-58
2024/03/29 02:56:43;;;;;;;;;2.67;1.00;;;;;;;;5100619;27;45333;-58
2024/03/29 02:59:08;;;;;;;;;3.00;2.00;;;;;;;;5100368;27;45211;-58
2024/03/29 03:01:33;;;;;;;;;1.00;1.00;;;;;;;;5101067;27;45272;-58
2024/03/29 03:03:58;;;;;;;;;0.00;0.00;;;;;;;;5100863;27;46444;-58
2024/03/29 03:06:23;;;;;;;;;1.00;1.00;;;;;;;;5097264;27;45427;-59
2024/03/29 03:11:32;;;;;;;;;1.00;1.00;;;;;;;;5095160;27;45309;-58
2024/03/29 03:13:57;;;;;;;;;0.00;0.00;;;;;;;;5094583;27;45235;-58
2024/03/29 03:16:23;;;;;;;;;1.00;1.00;;;;;;;;5092478;27;45365;-58
2024/03/29 03:18:49;;;;;;;;;2.33;1.00;;;;;;;;5099084;27;45495;-59
2024/03/29 03:21:15;;;;;;;;;0.33;0.33;;;;;;;;5094938;27;45336;-58
2024/03/29 03:23:40;;;;;;;;;1.00;1.00;;;;;;;;5100131;27;45308;-58
2024/03/29 03:26:05;;;;;;;;;1.67;1.67;;;;;;;;5099531;27;45246;-58
2024/03/29 03:28:30;;;;;;;;;0.33;0.33;;;;;;;;5095142;27;45156;-58
2024/03/29 03:30:56;;;;;;;;;1.00;1.00;;;;;;;;5093473;27;45501;-58
2024/03/29 03:33:21;;;;;;;;;1.00;1.00;;;;;;;;5092918;27;45339;-58
2024/03/29 03:35:47;;;;;;;;;3.33;1.00;;;;;;;;5097207;27;45272;-58
2024/03/29 03:38:12;;;;;;;;;1.00;1.00;;;;;;;;5097631;27;45442;-58
2024/03/29 03:40:38;;;;;;;;;2.33;1.00;;;;;;;;5085415;27;45618;-58
2024/03/29 03:43:03;;;;;;;;;2.00;0.33;;;;;;;;5095676;27;46269;-58
2024/03/29 03:45:29;;;;;;;;;1.00;1.00;;;;;;;;5091769;27;45503;-58
2024/03/29 03:47:54;;;;;;;;;0.00;0.00;;;;;;;;5099866;27;45588;-58
2024/03/29 03:50:19;;;;;;;;;1.00;1.00;;;;;;;;5100054;27;45210;-59
2024/03/29 03:52:44;;;;;;;;;1.67;1.00;;;;;;;;5097890;27;46662;-58
2024/03/29 03:55:09;;;;;;;;;2.00;0.00;;;;;;;;5099055;27;45525;-58
2024/03/29 03:57:35;;;;;;;;;0.00;0.00;;;;;;;;5099120;27;45319;-58
2024/03/29 04:00:00;;;;;;;;;1.00;1.00;;;;;;;;5100177;27;45300;-58
2024/03/29 04:02:25;;;;;;;;;2.00;0.00;;;;;;;;5090725;27;46406;-58
2024/03/29 04:04:50;;;;;;;;;3.33;1.00;;;;;;;;5099921;27;45486;-58
2024/03/29 04:07:16;;;;;;;;;1.00;1.00;;;;;;;;5099560;27;45354;-58
2024/03/29 04:09:41;;;;;;;;;2.00;0.67;;;;;;;;5099915;27;45486;-58
2024/03/29 04:12:06;;;;;;;;;2.00;0.67;;;;;;;;5099145;27;45318;-58
2024/03/29 04:14:31;;;;;;;;;2.00;2.00;;;;;;;;5099775;27;45724;-58
2024/03/29 04:16:56;;;;;;;;;1.00;1.00;;;;;;;;5095978;27;45385;-58
2024/03/29 04:19:21;;;;;;;;;1.33;1.33;;;;;;;;5099904;27;45455;-58
2024/03/29 04:21:47;;;;;;;;;1.33;0.67;;;;;;;;5097442;27;45372;-58
2024/03/29 04:24:12;;;;;;;;;1.33;0.67;;;;;;;;5093335;27;45319;-58
2024/03/29 04:26:38;;;;;;;;;1.00;1.00;;;;;;;;5090975;27;45431;-58
2024/03/29 04:29:03;;;;;;;;;1.33;0.00;;;;;;;;5091774;27;46195;-58
2024/03/29 04:31:28;;;;;;;;;1.00;1.00;;;;;;;;5095918;27;46341;-58
2024/03/29 04:33:54;;;;;;;;;0.00;0.00;;;;;;;;5099855;27;45282;-58
2024/03/29 04:36:19;;;;;;;;;0.33;0.33;;;;;;;;5095700;27;45417;-58
2024/03/29 04:38:44;;;;;;;;;1.00;1.00;;;;;;;;5090620;27;45208;-58
2024/03/29 04:41:09;;;;;;;;;1.00;1.00;;;;;;;;5098647;27;45795;-58
2024/03/29 04:43:34;;;;;;;;;0.00;0.00;;;;;;;;5098162;27;45327;-58
2024/03/29 04:46:04;;;;;;;;;1.00;1.00;;;;;;;;5099518;27;45437;-58
2024/03/29 04:48:29;;;;;;;;;1.00;1.00;;;;;;;;5099574;27;45575;-58
2024/03/29 04:50:54;;;;;;;;;1.00;0.00;;;;;;;;5099399;27;46594;-58
2024/03/29 04:53:19;;;;;;;;;0.00;0.00;;;;;;;;5090348;27;45428;-58
2024/03/29 04:55:47;;;;;;;;;1.00;1.00;;;;;;;;5099798;27;45499;-58
2024/03/29 04:58:13;;;;;;;;;1.00;1.00;;;;;;;;5099969;27;45600;-58
2024/03/29 05:00:38;;;;;;;;;1.00;1.00;;;;;;;;5101858;27;46045;-58
2024/03/29 05:03:03;;;;;;;;;2.33;1.00;;;;;;;;5101087;27;45213;-58
2024/03/29 05:05:28;;;;;;;;;1.33;1.00;;;;;;;;5102580;27;45220;-58
2024/03/29 05:07:54;;;;;;;;;2.67;1.00;;;;;;;;5102381;27;45308;-58
2024/03/29 05:10:22;;;;;;;;;2.00;0.00;;;;;;;;5101428;27;45416;-58
2024/03/29 05:12:47;;;;;;;;;1.00;1.00;;;;;;;;5098374;27;45434;-58
2024/03/29 05:15:13;;;;;;;;;2.00;2.00;;;;;;;;5102072;27;45630;-58
2024/03/29 05:17:41;;;;;;;;;1.67;1.67;;;;;;;;5102099;27;45721;-58
2024/03/29 05:20:06;;;;;;;;;0.00;0.00;;;;;;;;5102135;27;45968;-58
2024/03/29 05:22:31;;;;;;;;;0.67;0.67;;;;;;;;5097367;27;45342;-58
2024/03/29 05:24:56;;;;;;;;;1.00;1.00;;;;;;;;5097073;27;45544;-58
2024/03/29 05:27:22;;;;;;;;;2.33;2.00;;;;;;;;5090830;27;45260;-58
2024/03/29 05:29:47;;;;;;;;;1.33;1.33;;;;;;;;5097221;27;46103;-58
2024/03/29 05:32:12;;;;;;;;;1.00;1.00;;;;;;;;5093600;27;45264;-58
2024/03/29 05:34:37;;;;;;;;;1.00;1.00;;;;;;;;5102731;27;45283;-58
2024/03/29 05:37:03;;;;;;;;;1.33;1.33;;;;;;;;5097103;27;45281;-58
2024/03/29 05:39:28;;;;;;;;;2.67;2.00;;;;;;;;5097715;27;45413;-58
2024/03/29 05:41:53;;;;;;;;;2.67;1.00;;;;;;;;5101695;27;45414;-58
2024/03/29 05:44:18;;;;;;;;;3.00;1.00;;;;;;;;5089843;27;45413;-58
2024/03/29 05:46:44;;;;;;;;;1.33;1.00;;;;;;;;5091111;27;45226;-59
2024/03/29 05:49:09;;;;;;;;;1.00;1.00;;;;;;;;5097339;27;45477;-58
2024/03/29 05:51:34;;;;;;;;;2.00;1.67;;;;;;;;5094965;27;45386;-58
2024/03/29 05:53:59;;;;;;;;;0.00;0.00;;;;;;;;5097212;27;45433;-58
2024/03/29 05:56:24;;;;;;;;;1.00;1.00;;;;;;;;5100016;27;45446;-58
2024/03/29 05:58:50;;;;;;;;;1.33;0.67;;;;;;;;5099294;27;46501;-58
2024/03/29 06:01:15;;;;;;;;;1.00;1.00;;;;;;;;5101675;27;45381;-58
2024/03/29 06:03:40;;;;;;;;;1.00;1.00;;;;;;;;5097232;27;45350;-59
2024/03/29 06:06:07;;;;;;;;;3.00;1.33;;;;;;;;5096785;27;45415;-59
2024/03/29 06:08:32;;;;;;;;;2.33;1.00;;;;;;;;5097503;27;45585;-59
2024/03/29 06:10:59;;;;;;;;;1.33;1.33;;;;;;;;5101686;27;45421;-58
2024/03/29 06:17:22;;;;;;;;;2.00;0.00;;;;;;;;5101304;27;45407;-59
2024/03/29 06:18:59;;;;;;;;;2.00;2.00;;;;;;;;5091876;27;45366;-58
2024/03/29 06:21:24;;;;;;;;;0.33;0.33;;;;;;;;5088926;27;46369;-59
2024/03/29 06:23:49;;;;;;;;;0.00;0.00;;;;;;;;5101426;27;45533;-59
2024/03/29 06:26:14;;;;;;;;;1.00;1.00;;;;;;;;5100876;27;45765;-58
2024/03/29 06:28:40;;;;;;;;;1.33;1.00;;;;;;;;5101248;27;45834;-58
2024/03/29 06:31:05;;;;;;;;;2.33;1.00;;;;;;;;5098409;27;45217;-59
2024/03/29 06:33:30;;;;;;;;;1.67;1.33;;;;;;;;5100235;27;45365;-59
2024/03/29 06:35:55;;;;;;;;;0.00;0.00;;;;;;;;5096313;27;45272;-58
2024/03/29 06:38:21;;;;;;;;;2.00;0.00;;;;;;;;5090943;27;45503;-59
2024/03/29 06:40:46;;;;;;;;;0.33;0.33;;;;;;;;5094909;27;45280;-59
2024/03/29 06:43:12;;;;;;;;;0.00;0.00;;;;;;;;5089308;27;45232;-58
2024/03/29 06:45:39;;;;;;;;;1.00;1.00;;;;;;;;5087066;27;45387;-59
2024/03/29 06:48:05;;;;;;;;;0.67;0.67;;;;;;;;5091893;27;45425;-59
2024/03/29 06:50:30;;;;;;;;;1.00;1.00;;;;;;;;5087877;27;45397;-59
2024/03/29 06:52:55;;;;;;;;;3.67;2.00;;;;;;;;5091334;27;45231;-59
2024/03/29 06:55:20;;;;;;;;;2.00;2.00;;;;;;;;5081006;27;45960;-59
2024/03/29 06:57:45;;;;;;;;;1.00;1.00;;;;;;;;5063176;28;45908;-59
2024/03/29 07:00:11;;;;;;;;;1.00;1.00;;;;;;;;5094209;27;45355;-59
2024/03/29 07:02:36;;;;;;;;;0.00;0.00;;;;;;;;5091043;27;45332;-59
2024/03/29 07:05:07;;;;;;;;;0.67;0.67;;;;;;;;5087714;27;45810;-59
2024/03/29 07:07:32;;;;;;;;;1.67;1.00;;;;;;;;5091019;27;45343;-59
2024/03/29 07:09:57;;;;;;;;;4.67;1.67;;;;;;;;5094751;27;45378;-59
2024/03/29 07:12:22;;;;;;;;;0.00;0.00;;;;;;;;5088200;27;45865;-60
2024/03/29 07:14:47;;;;;;;;;2.00;0.67;;;;;;;;5066328;27;45542;-59
2024/03/29 07:17:13;;;;;;;;;1.00;1.00;;;;;;;;5090527;27;45567;-58
2024/03/29 07:19:38;;;;;;;;;1.00;1.00;;;;;;;;5084808;27;45483;-59
2024/03/29 07:22:03;;;;;;;;;0.00;0.00;;;;;;;;5099817;27;45312;-59
2024/03/29 07:24:29;;;;;;;;;0.00;0.00;;;;;;;;5093499;27;45317;-59
2024/03/29 07:26:54;;;;;;;;;0.00;0.00;;;;;;;;5093259;27;45306;-59
2024/03/29 07:29:19;;;;;;;;;0.00;0.00;;;;;;;;5096698;27;46279;-58
2024/03/29 07:31:44;;;;;;;;;2.33;1.00;;;;;;;;5099972;27;45355;-54
2024/03/29 07:34:10;;;;;;;;;1.33;1.33;;;;;;;;5090701;27;45444;-54
2024/03/29 07:36:35;;;;;;;;;1.67;1.67;;;;;;;;5097718;27;47121;-53
2024/03/29 07:39:01;;;;;;;;;2.00;2.00;;;;;;;;5095970;27;45421;-54
2024/03/29 07:41:26;;;;;;;;;1.67;1.67;;;;;;;;5096725;27;45529;-54
2024/03/29 07:43:53;;;;;;;;;1.00;1.00;;;;;;;;5095288;27;45433;-52
2024/03/29 07:46:19;;;;;;;;;5.67;5.00;;;;;;;;5079316;27;47179;-53
2024/03/29 07:48:44;;;;;;;;;5.33;5.33;;;;;;;;5098650;27;45362;-53
2024/03/29 07:51:09;;;;;;;;;3.00;2.67;;;;;;;;5093934;27;45373;-53
2024/03/29 07:53:34;;;;;;;;;1.00;1.00;;;;;;;;5094360;27;45554;-53
2024/03/29 07:56:00;;;;;;;;;3.00;1.00;;;;;;;;5094309;27;46353;-51
2024/03/29 07:58:25;;;;;;;;;5.67;2.67;;;;;;;;5098585;27;45282;-54
2024/03/29 08:00:51;;;;;;;;;1.00;1.00;;;;;;;;5094141;27;45571;-53
2024/03/29 08:03:17;;;;;;;;;1.00;1.00;;;;;;;;5090897;27;45359;-51
2024/03/29 08:05:42;;;;;;;;;2.00;2.00;;;;;;;;5090416;27;46164;-51
2024/03/29 08:08:07;;;;;;;;;6.00;1.00;;;;;;;;5098027;27;45475;-49
2024/03/29 08:10:32;;;;;;;;;2.67;1.00;;;;;;;;5094241;27;45570;-52
2024/03/29 08:12:57;;;;;;;;;1.00;1.00;;;;;;;;5096158;27;45632;-53
2024/03/29 08:15:23;;;;;;;;;1.00;1.00;;;;;;;;5092286;27;46315;-52
2024/03/29 08:17:48;;;;;;;;;0.33;0.33;;;;;;;;5096550;27;45520;-53
2024/03/29 08:20:13;;;;;;;;;1.00;1.00;;;;;;;;5093157;27;45544;-51
2024/03/29 08:22:39;;;;;;;;;1.00;1.00;;;;;;;;5095550;27;45913;-52
2024/03/29 08:25:04;;;;;;;;;3.00;1.67;;;;;;;;5095414;27;46174;-52
2024/03/29 08:27:29;;;;;;;;;0.67;0.33;;;;;;;;5098813;27;45451;-53
2024/03/29 08:29:54;;;;;;;;;1.00;1.00;;;;;;;;5093621;27;45398;-52
2024/03/29 08:32:20;;;;;;;;;1.67;1.00;;;;;;;;5093504;27;45767;-57
2024/03/29 08:34:45;;;;;;;;;2.00;0.33;;;;;;;;5095630;27;46381;-57
2024/03/29 08:37:10;;;;;;;;;2.00;0.67;;;;;;;;5097625;27;45480;-57
2024/03/29 08:39:37;;;;;;;;;0.00;0.00;;;;;;;;5094967;27;45345;-57
2024/03/29 08:42:04;;;;;;;;;1.33;0.67;;;;;;;;5090869;27;45394;-57
2024/03/29 08:44:30;;;;;;;;;0.00;0.00;;;;;;;;5086852;27;47182;-57
2024/03/29 08:46:57;;;;;;;;;4.00;4.00;;;;;;;;5098118;27;45330;-57
2024/03/29 08:49:22;;;;;;;;;0.00;0.00;;;;;;;;5094156;27;45461;-57
2024/03/29 08:51:47;;;;;;;;;0.00;0.00;;;;;;;;5096252;27;45210;-57
2024/03/29 08:54:12;;;;;;;;;1.00;1.00;;;;;;;;5076619;27;46839;-57
2024/03/29 08:56:40;;;;;;;;;0.00;0.00;;;;;;;;5072719;27;45455;-57
2024/03/29 08:59:08;;;;;;;;;0.67;0.67;;;;;;;;5089850;27;45501;-57
2024/03/29 09:01:35;;;;;;;;;1.00;1.00;;;;;;;;5089893;27;45766;-57
2024/03/29 09:04:01;;;;;;;;;2.67;0.00;;;;;;;;5096007;27;46519;-57
2024/03/29 09:06:26;;;;;;;;;0.00;0.00;;;;;;;;5097428;27;45214;-57
2024/03/29 09:08:52;;;;;;;;;0.67;0.67;;;;;;;;5093378;27;45453;-57
2024/03/29 09:11:18;;;;;;;;;1.00;1.00;;;;;;;;5095593;27;45413;-57
2024/03/29 09:13:43;;;;;;;;;2.00;0.00;;;;;;;;5094030;27;46237;-57
2024/03/29 09:16:08;;;;;;;;;0.00;0.00;;;;;;;;5094530;27;45552;-57
2024/03/29 09:18:33;;;;;;;;;1.00;1.00;;;;;;;;5094275;27;45389;-57
2024/03/29 09:20:59;;;;;;;;;0.00;0.00;;;;;;;;5095342;27;45646;-57
2024/03/29 09:23:25;;;;;;;;;0.00;0.00;;;;;;;;5086766;27;46363;-57
2024/03/29 09:25:51;;;;;;;;;0.00;0.00;;;;;;;;5094765;27;45436;-57
2024/03/29 09:28:16;;;;;;;;;0.00;0.00;;;;;;;;5093716;27;45919;-57
2024/03/29 09:30:41;;;;;;;;;0.00;0.00;;;;;;;;5089048;27;45436;-57
2024/03/29 09:33:09;;;;;;;;;0.33;0.33;;;;;;;;5088243;27;45917;-57
2024/03/29 09:35:34;;;;;;;;;0.00;0.00;;;;;;;;5094781;27;45440;-58
2024/03/29 09:37:59;;;;;;;;;0.00;0.00;;;;;;;;5097440;27;45499;-57
2024/03/29 09:40:24;;;;;;;;;0.00;0.00;;;;;;;;5089654;27;45427;-57
2024/03/29 09:42:50;;;;;;;;;0.00;0.00;;;;;;;;5093198;27;46701;-58
2024/03/29 09:45:16;;;;;;;;;0.00;0.00;;;;;;;;5095264;27;45382;-57
2024/03/29 09:47:42;;;;;;;;;0.00;0.00;;;;;;;;5094017;27;45357;-57
2024/03/29 09:50:07;;;;;;;;;4.33;1.33;;;;;;;;5072745;27;45602;-58
2024/03/29 09:52:33;;;;;;;;;1.33;0.33;;;;;;;;5095220;27;45770;-58
2024/03/29 09:54:59;;;;;;;;;0.67;0.67;;;;;;;;5101464;27;45392;-58
2024/03/29 09:57:29;;;;;;;;;0.67;0.67;;;;;;;;5100195;27;45377;-58
2024/03/29 09:59:54;;;;;;;;;0.00;0.00;;;;;;;;5097947;27;45355;-58
2024/03/29 10:02:20;;;;;;;;;0.00;0.00;;;;;;;;5099441;27;45535;-57
2024/03/29 10:04:47;;;;;;;;;0.00;0.00;;;;;;;;5099012;27;45499;-57
2024/03/29 10:07:15;;;;;;;;;1.00;1.00;;;;;;;;5095820;27;45558;-57
2024/03/29 10:09:41;;;;;;;;;1.00;1.00;;;;;;;;5098248;27;45471;-57
2024/03/29 10:12:06;;;;;;;;;2.00;0.33;;;;;;;;5093611;27;46581;-57
2024/03/29 10:14:31;;;;;;;;;1.00;1.00;;;;;;;;5094755;27;45368;-57
2024/03/29 10:16:59;;;;;;;;;1.00;0.67;;;;;;;;5088583;27;45425;-57
2024/03/29 10:19:24;;;;;;;;;1.33;1.33;;;;;;;;5100013;27;45562;-57
2024/03/29 10:21:50;;;;;;;;;0.00;0.00;;;;;;;;5100799;27;46026;-53
2024/03/29 10:24:16;;;;;;;;;3.00;0.67;;;;;;;;5098025;27;45655;-55
2024/03/29 10:26:42;;;;;;;;;1.00;0.33;;;;;;;;5082924;27;45582;-54
2024/03/29 10:29:08;;;;;;;;;0.00;0.00;;;;;;;;5078975;27;45566;-52
2024/03/29 10:31:34;;;;;;;;;4.67;1.00;;;;;;;;5090905;27;47080;-54
2024/03/29 10:34:02;;;;;;;;;1.33;0.67;;;;;;;;5094706;27;45538;-54
2024/03/29 10:36:27;;;;;;;;;0.00;0.00;;;;;;;;5099673;27;45429;-53
2024/03/29 10:38:52;;;;;;;;;0.00;0.00;;;;;;;;5098723;27;45520;-53
2024/03/29 10:41:17;;;;;;;;;1.00;1.00;;;;;;;;5097054;27;45406;-54
2024/03/29 10:43:45;;;;;;;;;0.00;0.00;;;;;;;;5099933;27;45393;-53
2024/03/29 10:46:11;;;;;;;;;0.00;0.00;;;;;;;;5099340;27;45298;-53
2024/03/29 10:48:36;;;;;;;;;0.75;0.75;;;;;;;;5099889;27;45746;-54
2024/03/29 10:51:02;;;;;;;;;1.00;1.00;;;;;;;;5093590;27;46526;-54
2024/03/29 10:53:29;;;;;;;;;0.75;0.00;;;;;;;;5100200;27;45400;-54
2024/03/29 10:55:57;;;;;;;;;1.00;1.00;;;;;;;;5095054;27;45789;-55
2024/03/29 10:58:25;;;;;;;;;1.25;1.25;;;;;;;;5079384;27;45530;-55
2024/03/29 11:00:53;;;;;;;;;0.25;0.25;;;;;;;;5080726;27;46846;-54
2024/03/29 11:03:37;;;;;;;;;1.50;0.50;;;;;;;;5099943;27;45480;-56
2024/03/29 11:06:04;;;;;;;;;7.00;6.00;;;;;;;;5080816;27;45379;-55
2024/03/29 11:08:34;;;;;;;;;2.00;0.25;;;;;;;;5097978;27;45476;-55
2024/03/29 11:11:04;;;;;;;;;9.00;9.00;;;;;;;;5098647;27;46509;-54
2024/03/29 11:13:32;;;;;;;;;3.00;1.75;;;;;;;;5092735;27;45422;-53
2024/03/29 11:15:59;;;;;;;;;0.25;0.25;;;;;;;;5080316;27;45483;-51
2024/03/29 11:18:26;;;;;;;;;0.00;0.00;;;;;;;;5099468;27;45476;-53
2024/03/29 11:20:52;;;;;;;;;0.00;0.00;;;;;;;;5080994;27;47620;-54
2024/03/29 11:23:19;;;;;;;;;3.50;1.00;;;;;;;;5099575;27;45392;-55
2024/03/29 11:26:00;;;;;;;;;0.75;0.00;;;;;;;;5095049;27;45378;-53
2024/03/29 11:28:29;;;;;;;;;1.00;0.00;;;;;;;;5090995;27;45225;-52
2024/03/29 11:30:56;;;;;;;;;0.00;0.00;;;;;;;;5098076;27;46149;-52
2024/03/29 11:33:28;;;;;;;;;1.50;0.00;;;;;;;;5094123;27;45374;-51
2024/03/29 11:35:53;;;;;;;;;1.75;0.25;;;;;;;;5066525;27;45358;-49
2024/03/29 11:38:19;;;;;;;;;1.00;1.00;;;;;;;;5095267;27;45652;-60
2024/03/29 11:41:14;;;;;;;;;0.00;0.00;;;;;;;;5091550;27;45602;-52
2024/03/29 11:43:39;;;;;;;;;2.00;0.00;;;;;;;;5085668;27;45425;-54
2024/03/29 11:46:08;;;;;;;;;0.00;0.00;;;;;;;;5078666;27;45457;-48
2024/03/29 11:48:35;;;;;;;;;1.00;1.00;;;;;;;;5098406;27;45406;-56
2024/03/29 11:51:01;;;;;;;;;0.00;0.00;;;;;;;;5085469;27;47071;-56
2024/03/29 11:53:27;;;;;;;;;1.00;0.00;;;;;;;;5096337;27;45580;-53
2024/03/29 11:55:56;;;;;;;;;0.00;0.00;;;;;;;;5098795;27;45414;-57
2024/03/29 11:58:22;;;;;;;;;0.00;0.00;;;;;;;;5098059;27;45840;-55
2024/03/29 12:00:48;;;;;;;;;0.00;0.00;;;;;;;;5098376;27;45451;-53
2024/03/29 12:03:14;;;;;;;;;2.50;1.00;;;;;;;;5097967;27;45351;-52
2024/03/29 12:05:39;;;;;;;;;0.00;0.00;;;;;;;;5095163;27;45488;-56
2024/03/29 12:08:05;;;;;;;;;1.25;0.00;;;;;;;;5097553;27;45273;-53
2024/03/29 12:10:30;;;;;;;;;0.75;0.75;;;;;;;;5098097;27;46321;-56
2024/03/29 12:12:56;;;;;;;;;0.00;0.00;;;;;;;;5098437;27;45282;-53
2024/03/29 12:15:23;;;;;;;;;1.00;0.00;;;;;;;;5089543;27;45362;-52
2024/03/29 12:17:58;;;;;;;;;0.00;0.00;;;;;;;;5092594;27;45391;-54
2024/03/29 12:20:23;;;;;;;;;0.00;0.00;;;;;;;;5079638;27;46005;-56
2024/03/29 12:22:48;;;;;;;;;0.50;0.00;;;;;;;;5076439;27;45437;-53
2024/03/29 12:25:14;;;;;;;;;1.00;1.00;;;;;;;;5102346;27;45380;-55
2024/03/29 12:27:39;;;;;;;;;0.00;0.00;;;;;;;;5097635;27;45702;-54
2024/03/29 12:30:05;;;;;;;;;0.50;0.00;;;;;;;;5096841;27;46408;-51
2024/03/29 12:32:33;;;;;;;;;1.00;1.00;;;;;;;;5086631;27;45420;-54
2024/03/29 12:35:07;;;;;;;;;0.00;0.00;;;;;;;;5080200;27;45401;-51
2024/03/29 12:37:32;;;;;;;;;1.00;1.00;;;;;;;;5094877;27;45365;-56
2024/03/29 12:39:59;;;;;;;;;0.00;0.00;;;;;;;;5084324;27;46220;-54
2024/03/29 12:42:24;;;;;;;;;0.00;0.00;;;;;;;;5088908;27;45535;-46
2024/03/29 12:44:49;;;;;;;;;0.00;0.00;;;;;;;;5095237;27;45317;-50
2024/03/29 12:47:15;;;;;;;;;1.00;1.00;;;;;;;;5093254;27;45453;-50
2024/03/29 12:49:40;;;;;;;;;2.00;1.50;;;;;;;;5093061;27;47394;-52
2024/03/29 12:52:05;;;;;;;;;2.00;1.00;;;;;;;;5085729;27;45675;-52
2024/03/29 12:54:31;;;;;;;;;1.00;1.00;;;;;;;;5079468;27;45336;-51
2024/03/29 12:56:56;;;;;;;;;0.00;0.00;;;;;;;;5097696;27;45500;-49
2024/03/29 12:59:21;;;;;;;;;0.50;0.00;;;;;;;;5096764;27;45383;-49
2024/03/29 13:01:47;;;;;;;;;1.00;1.00;;;;;;;;5095706;27;45402;-49
2024/03/29 13:04:12;;;;;;;;;0.00;0.00;;;;;;;;5094700;27;45303;-50
2024/03/29 13:06:37;;;;;;;;;0.50;0.00;;;;;;;;5098328;27;45347;-51
2024/03/29 13:09:02;;;;;;;;;0.00;0.00;;;;;;;;5078446;27;47568;-48
2024/03/29 13:11:28;;;;;;;;;0.00;0.00;;;;;;;;5094089;27;45257;-48
2024/03/29 13:13:53;;;;;;;;;0.00;0.00;;;;;;;;5064768;27;45646;-52
2024/03/29 13:16:18;;;;;;;;;0.00;0.00;;;;;;;;5093587;27;45333;-51
2024/03/29 13:18:43;;;;;;;;;1.00;1.00;;;;;;;;5098613;27;45259;-49
2024/03/29 13:21:09;;;;;;;;;0.00;0.00;;;;;;;;5094300;27;45580;-47
2024/03/29 13:23:34;;;;;;;;;0.00;0.00;;;;;;;;5082051;27;46494;-49
2024/03/29 13:26:00;;;;;;;;;2.00;0.00;;;;;;;;5099708;27;45567;-50
2024/03/29 13:28:25;;;;;;;;;0.50;0.50;;;;;;;;5082099;27;47543;-52
2024/03/29 13:30:51;;;;;;;;;0.00;0.00;;;;;;;;5100923;27;45452;-51
2024/03/29 13:33:17;;;;;;;;;1.00;0.00;;;;;;;;5099892;27;45307;-51
2024/03/29 13:35:42;;;;;;;;;0.00;0.00;;;;;;;;5075993;27;45263;-49
2024/03/29 13:38:07;;;;;;;;;0.50;0.00;;;;;;;;5099215;27;45422;-51
2024/03/29 13:40:34;;;;;;;;;0.00;0.00;;;;;;;;5099137;27;45472;-49
2024/03/29 13:42:59;;;;;;;;;0.00;0.00;;;;;;;;5100949;27;46353;-51
2024/03/29 13:45:27;;;;;;;;;0.00;0.00;;;;;;;;5098936;27;45405;-49
2024/03/29 13:47:53;;;;;;;;;0.00;0.00;;;;;;;;5076639;27;45709;-50
2024/03/29 13:50:18;;;;;;;;;0.00;0.00;;;;;;;;5086342;27;45746;-48
2024/03/29 13:52:46;;;;;;;;;0.00;0.00;;;;;;;;5098416;27;45553;-51
2024/03/29 13:55:11;;;;;;;;;1.00;0.00;;;;;;;;5096542;27;45362;-51
2024/03/29 13:57:37;;;;;;;;;0.25;0.25;;;;;;;;5091269;27;46200;-49
2024/03/29 14:00:04;;;;;;;;;0.00;0.00;;;;;;;;5091836;27;45441;-51
2024/03/29 14:02:29;;;;;;;;;0.00;0.00;;;;;;;;5095983;27;45341;-51
2024/03/29 14:04:55;;;;;;;;;0.50;0.50;;;;;;;;5096298;27;45552;-47
2024/03/29 14:07:20;;;;;;;;;0.00;0.00;;;;;;;;5092854;27;46186;-50
2024/03/29 14:09:46;;;;;;;;;1.00;0.00;;;;;;;;5092368;27;45414;-51
2024/03/29 14:12:11;;;;;;;;;0.00;0.00;;;;;;;;5095264;27;45597;-49
2024/03/29 14:14:36;;;;;;;;;0.50;0.00;;;;;;;;5095952;27;45591;-50
2024/03/29 14:17:04;;;;;;;;;0.00;0.00;;;;;;;;5094480;27;47936;-49
2024/03/29 14:19:36;;;;;;;;;0.00;0.00;;;;;;;;5097902;27;45434;-48
2024/03/29 14:22:02;;;;;;;;;0.00;0.00;;;;;;;;5099215;27;45362;-49
2024/03/29 14:24:30;;;;;;;;;0.00;0.00;;;;;;;;5099594;27;45444;-49
2024/03/29 14:26:55;;;;;;;;;0.75;0.00;;;;;;;;5097760;27;45497;-48
2024/03/29 14:29:21;;;;;;;;;0.00;0.00;;;;;;;;5094717;27;45446;-51
2024/03/29 14:31:50;;;;;;;;;0.50;0.00;;;;;;;;5094987;27;45674;-48
2024/03/29 14:34:16;;;;;;;;;1.00;1.00;;;;;;;;5078048;27;45450;-48
2024/03/29 14:36:41;;;;;;;;;2.75;0.00;;;;;;;;5095035;27;45408;-48
2024/03/29 14:39:06;;;;;;;;;0.00;0.00;;;;;;;;5087884;27;45338;-49
2024/03/29 14:41:31;;;;;;;;;0.00;0.00;;;;;;;;5075150;27;45386;-51